Time;durP1;ratioP1;P1;durP2;ratioP2;P2;SDS_P1;SDS_P2;PMS_P1;PMS_P2;Temp;Humidity;BMP_temperature;BMP_pressure;BME280_temperature;BME280_humidity;BME280_pressure;Samples;Min_cycle;Max_cycle;Signal;HPM_P1;HPM_P2
2022/06/15 00:01:37;;;;;;;19.20;18.20;;;;;;;-141.02;100.00;55844.97;5133715;27;20282;-77
2022/06/15 00:04:06;;;;;;;19.20;18.20;;;;;;;-141.02;100.00;55844.97;5134064;27;20197;-77
2022/06/15 00:06:38;;;;;;;20.35;19.25;;;;;;;-141.02;100.00;55844.97;5134006;27;20629;-77
2022/06/15 00:09:05;;;;;;;20.70;19.60;;;;;;;-141.02;100.00;55844.97;5134078;27;20645;-78
2022/06/15 00:11:35;;;;;;;20.95;19.85;;;;;;;-141.02;100.00;55844.97;5133883;27;20721;-76
2022/06/15 00:14:05;;;;;;;21.27;20.17;;;;;;;-141.02;100.00;55844.97;5133843;27;20227;-77
2022/06/15 00:16:32;;;;;;;21.08;19.98;;;;;;;-141.02;100.00;55844.97;5133490;27;20704;-77
2022/06/15 00:18:59;;;;;;;21.48;20.38;;;;;;;-141.02;100.00;55844.97;5133461;27;20198;-77
2022/06/15 00:21:28;;;;;;;21.20;20.10;;;;;;;-141.02;100.00;55844.97;5133754;27;20188;-77
2022/06/15 00:23:56;;;;;;;21.02;19.92;;;;;;;-141.02;100.00;55844.97;5133409;27;20193;-77
2022/06/15 00:26:23;;;;;;;20.38;19.38;;;;;;;-141.02;100.00;55844.97;5133399;27;20666;-76
2022/06/15 00:28:50;;;;;;;20.95;19.85;;;;;;;-141.02;100.00;55844.97;5133141;27;20568;-77
2022/06/15 00:31:18;;;;;;;21.30;20.20;;;;;;;-141.02;100.00;55844.97;5133214;27;20697;-77
2022/06/15 00:33:45;;;;;;;20.95;19.85;;;;;;;-141.02;100.00;55844.97;5133793;27;20197;-76
2022/06/15 00:36:15;;;;;;;20.73;19.63;;;;;;;-141.02;100.00;55844.97;5133208;27;20627;-76
2022/06/15 00:38:45;;;;;;;21.13;20.02;;;;;;;-141.02;100.00;55844.97;5133501;27;20232;-76
2022/06/15 00:41:14;;;;;;;20.85;19.75;;;;;;;-141.02;100.00;55844.97;5133507;27;20224;-76
2022/06/15 00:43:44;;;;;;;20.75;19.75;;;;;;;-141.02;100.00;55844.97;5133992;27;20284;-77
2022/06/15 00:46:16;;;;;;;20.55;19.55;;;;;;;-141.02;100.00;55844.97;5133070;27;20685;-77
2022/06/15 00:48:45;;;;;;;20.63;19.63;;;;;;;-141.02;100.00;55844.97;5133466;27;20569;-77
2022/06/15 00:51:12;;;;;;;20.40;19.40;;;;;;;-141.02;100.00;55844.97;5133082;27;20724;-77
2022/06/15 00:53:39;;;;;;;20.02;19.02;;;;;;;-141.02;100.00;55844.97;5133347;27;20196;-77
2022/06/15 00:56:09;;;;;;;21.10;20.00;;;;;;;-141.02;100.00;55844.97;5132961;27;20647;-77
2022/06/15 00:58:37;;;;;;;21.25;20.15;;;;;;;-141.02;100.00;55844.97;5133777;27;20200;-77
2022/06/15 01:01:05;;;;;;;21.45;20.35;;;;;;;-141.02;100.00;55844.97;5133531;27;20192;-77
2022/06/15 01:03:32;;;;;;;20.50;19.40;;;;;;;-141.02;100.00;55844.97;5133165;27;20654;-78
2022/06/15 01:06:05;;;;;;;20.80;19.80;;;;;;;-141.02;100.00;55844.97;5133215;27;20224;-77
2022/06/15 01:08:39;;;;;;;20.30;19.30;;;;;;;-141.02;100.00;55844.97;5132906;27;20280;-77
2022/06/15 01:11:32;;;;;;;20.52;19.52;;;;;;;-141.02;100.00;55844.97;5133141;27;20208;-77
2022/06/15 01:14:16;;;;;;;21.08;19.98;;;;;;;-141.02;100.00;55844.97;5131978;27;20245;-77
2022/06/15 01:16:51;;;;;;;21.33;20.23;;;;;;;-141.02;100.00;55844.97;5132803;27;20281;-76
2022/06/15 01:19:48;;;;;;;21.27;20.17;;;;;;;-141.02;100.00;55844.97;5133132;27;20184;-77
2022/06/15 01:22:34;;;;;;;20.83;19.73;;;;;;;-141.02;100.00;55844.97;5133115;27;20279;-77
2022/06/15 01:25:26;;;;;;;20.58;19.58;;;;;;;-141.02;100.00;55844.97;5132720;27;20184;-77
2022/06/15 01:28:30;;;;;;;21.05;19.98;;;;;;;-141.02;100.00;55844.97;5132998;27;20271;-76
2022/06/15 01:31:05;;;;;;;20.80;19.80;;;;;;;-141.02;100.00;55844.97;5132583;27;20188;-77
2022/06/15 01:33:40;;;;;;;20.88;19.77;;;;;;;-141.02;100.00;55844.97;5132941;27;20186;-77
2022/06/15 01:36:18;;;;;;;20.63;19.63;;;;;;;-141.02;100.00;55844.97;5132643;27;20192;-77
2022/06/15 01:38:57;;;;;;;20.83;19.77;;;;;;;-141.02;100.00;55844.97;5132904;27;20271;-77
2022/06/15 01:41:33;;;;;;;21.00;19.95;;;;;;;-141.02;100.00;55844.97;5136060;27;20224;-77
2022/06/15 01:44:05;;;;;;;19.90;18.90;;;;;;;-141.02;100.00;55844.97;5136477;27;20632;-77
2022/06/15 01:46:36;;;;;;;21.00;19.90;;;;;;;-141.02;100.00;55844.97;5136545;27;20188;-77
2022/06/15 01:49:04;;;;;;;20.42;19.33;;;;;;;-141.02;100.00;55844.97;5136680;27;20207;-77
2022/06/15 01:51:36;;;;;;;21.50;20.40;;;;;;;-141.02;100.00;55844.97;5136120;27;20287;-77
2022/06/15 01:54:09;;;;;;;20.80;19.70;;;;;;;-141.02;100.00;55844.97;5136348;27;20245;-77
2022/06/15 01:56:41;;;;;;;20.38;19.38;;;;;;;-141.02;100.00;55844.97;5136571;27;20184;-77
2022/06/15 01:59:15;;;;;;;20.85;19.75;;;;;;;-141.02;100.00;55844.97;5136569;27;20213;-77
2022/06/15 02:01:50;;;;;;;20.38;19.33;;;;;;;-141.02;100.00;55844.97;5136208;27;20231;-77
2022/06/15 02:04:27;;;;;;;19.77;18.77;;;;;;;-141.02;100.00;55844.97;5136420;27;20193;-77
2022/06/15 02:07:05;;;;;;;19.38;18.38;;;;;;;-141.02;100.00;55844.97;5136383;27;20249;-78
2022/06/15 02:09:39;;;;;;;19.90;18.90;;;;;;;-141.02;100.00;55844.97;5136011;27;20184;-77
2022/06/15 02:12:09;;;;;;;20.00;19.00;;;;;;;-141.02;100.00;55844.97;5136241;27;20757;-78
2022/06/15 02:14:42;;;;;;;19.77;18.77;;;;;;;-141.02;100.00;55844.97;5135867;27;20222;-78
2022/06/15 02:17:16;;;;;;;19.70;18.70;;;;;;;-141.02;100.00;55844.97;5136099;27;20184;-78
2022/06/15 02:19:46;;;;;;;19.65;18.65;;;;;;;-141.02;100.00;55844.97;5136152;27;20266;-78
2022/06/15 02:22:17;;;;;;;20.30;19.20;;;;;;;-141.02;100.00;55844.97;5136094;27;20200;-77
2022/06/15 02:24:47;;;;;;;20.65;19.55;;;;;;;-141.02;100.00;55844.97;5136083;27;20227;-78
2022/06/15 02:27:16;;;;;;;19.85;18.77;;;;;;;-141.02;100.00;55844.97;5135995;27;20223;-78
2022/06/15 02:29:47;;;;;;;20.73;19.63;;;;;;;-141.02;100.00;55844.97;5135843;27;20817;-78
2022/06/15 02:32:18;;;;;;;20.38;19.27;;;;;;;-141.02;100.00;55844.97;5135536;27;20306;-78
2022/06/15 02:34:45;;;;;;;19.98;18.88;;;;;;;-141.02;100.00;55844.97;5135878;27;20703;-78
2022/06/15 02:37:13;;;;;;;20.92;19.83;;;;;;;-141.02;100.00;55844.97;5135465;27;20701;-78
2022/06/15 02:39:40;;;;;;;20.00;18.90;;;;;;;-141.02;100.00;55844.97;5135800;27;20200;-78
2022/06/15 02:42:25;;;;;;;20.58;19.48;;;;;;;-141.02;100.00;55844.97;5135336;27;20246;-78
2022/06/15 02:44:55;;;;;;;20.70;19.60;;;;;;;-141.02;100.00;55844.97;5135700;27;20267;-78
2022/06/15 02:47:27;;;;;;;20.27;19.17;;;;;;;-141.02;100.00;55844.97;5135251;27;20200;-78
2022/06/15 02:49:54;;;;;;;19.80;18.80;;;;;;;-141.02;100.00;55844.97;5135104;27;20184;-78
2022/06/15 02:52:25;;;;;;;19.52;18.52;;;;;;;-141.02;100.00;55844.97;5134589;27;20231;-78
2022/06/15 02:54:54;;;;;;;19.20;18.20;;;;;;;-141.02;100.00;55844.97;5135457;27;20203;-78
2022/06/15 02:57:22;;;;;;;18.70;17.80;;;;;;;-141.02;100.00;55844.97;5135037;27;20283;-78
2022/06/15 02:59:50;;;;;;;19.23;18.23;;;;;;;-141.02;100.00;55844.97;5135329;27;20258;-78
2022/06/15 03:02:17;;;;;;;20.00;18.90;;;;;;;-141.02;100.00;55844.97;5134957;27;20674;-78
2022/06/15 03:04:47;;;;;;;19.70;18.70;;;;;;;-141.02;100.00;55844.97;5134930;27;20283;-78
2022/06/15 03:07:14;;;;;;;19.50;18.50;;;;;;;-141.02;100.00;55844.97;5134875;27;20246;-78
2022/06/15 03:09:42;;;;;;;19.55;18.55;;;;;;;-141.02;100.00;55844.97;5134842;27;20193;-78
2022/06/15 03:12:11;;;;;;;19.58;18.58;;;;;;;-141.02;100.00;55844.97;5134969;27;20311;-78
2022/06/15 03:14:38;;;;;;;19.65;18.65;;;;;;;-141.02;100.00;55844.97;5134689;27;20204;-78
2022/06/15 03:17:06;;;;;;;19.40;18.40;;;;;;;-141.02;100.00;55844.97;5134969;27;20612;-78
2022/06/15 03:19:33;;;;;;;19.48;18.48;;;;;;;-141.02;100.00;55844.97;5135133;27;20222;-78
2022/06/15 03:22:01;;;;;;;19.65;18.65;;;;;;;-141.02;100.00;55844.97;5134877;27;20229;-78
2022/06/15 03:24:28;;;;;;;19.23;18.23;;;;;;;-141.02;100.00;55844.97;5134796;27;20559;-78
2022/06/15 03:26:55;;;;;;;19.40;18.40;;;;;;;-141.02;100.00;55844.97;5134422;27;20203;-78
2022/06/15 03:29:23;;;;;;;19.80;18.80;;;;;;;-141.02;100.00;55844.97;5134696;27;20235;-78
2022/06/15 03:31:50;;;;;;;19.77;18.77;;;;;;;-141.02;100.00;55844.97;5134260;27;20220;-78
2022/06/15 03:34:17;;;;;;;19.75;18.75;;;;;;;-141.02;100.00;55844.97;5134358;27;20220;-78
2022/06/15 03:36:44;;;;;;;20.55;19.45;;;;;;;-141.02;100.00;55844.97;5134293;27;20234;-78
2022/06/15 03:39:13;;;;;;;21.23;20.02;;;;;;;-141.02;100.00;55844.97;5134178;27;20228;-78
2022/06/15 03:41:40;;;;;;;21.67;20.48;;;;;;;-141.02;100.00;55844.97;5134504;27;20189;-78
2022/06/15 03:44:07;;;;;;;21.88;20.67;;;;;;;-141.02;100.00;55844.97;5134414;27;20280;-78
2022/06/15 03:46:34;;;;;;;22.30;21.00;;;;;;;-141.02;100.00;55844.97;5134697;27;20620;-78
2022/06/15 03:49:01;;;;;;;22.88;21.50;;;;;;;-141.02;100.00;55844.97;5134047;27;20283;-78
2022/06/15 03:51:28;;;;;;;23.42;22.02;;;;;;;-141.02;100.00;55844.97;5134031;27;20228;-78
2022/06/15 03:53:55;;;;;;;23.50;22.10;;;;;;;-141.02;100.00;55844.97;5134196;27;20238;-78
2022/06/15 03:56:24;;;;;;;22.75;21.45;;;;;;;-141.02;100.00;55844.97;5133911;27;20658;-78
2022/06/15 03:58:51;;;;;;;23.45;22.05;;;;;;;-141.02;100.00;55844.97;5134192;27;20262;-78
2022/06/15 04:01:18;;;;;;;23.20;21.80;;;;;;;-141.02;100.00;55844.97;5134108;27;20223;-78
2022/06/15 04:03:45;;;;;;;23.33;21.92;;;;;;;-141.02;100.00;55844.97;5133020;27;20225;-78
2022/06/15 04:06:12;;;;;;;23.25;21.85;;;;;;;-141.02;100.00;55844.97;5133725;27;20287;-79
2022/06/15 04:08:38;;;;;;;23.63;22.23;;;;;;;-141.02;100.00;55844.97;5134000;27;20253;-78
2022/06/15 04:11:07;;;;;;;23.10;21.67;;;;;;;-141.02;100.00;55844.97;5133999;27;20260;-78
2022/06/15 04:13:36;;;;;;;23.15;21.65;;;;;;;-141.02;100.00;55844.97;5133799;27;20230;-79
2022/06/15 04:16:06;;;;;;;23.38;21.88;;;;;;;-141.02;100.00;55844.97;5133579;27;20197;-79
2022/06/15 04:18:33;;;;;;;23.27;21.77;;;;;;;-141.02;100.00;55844.97;5133610;27;20292;-78
2022/06/15 04:21:00;;;;;;;23.48;22.05;;;;;;;-141.02;100.00;55844.97;5133498;27;20283;-78
2022/06/15 04:23:28;;;;;;;22.75;21.35;;;;;;;-141.02;100.00;55844.97;5133683;27;20717;-78
2022/06/15 04:25:58;;;;;;;23.52;22.02;;;;;;;-141.02;100.00;55844.97;5133617;27;20757;-78
2022/06/15 04:28:27;;;;;;;23.05;21.65;;;;;;;-141.02;100.00;55844.97;5133682;27;20276;-79
2022/06/15 04:30:55;;;;;;;22.60;21.20;;;;;;;-141.02;100.00;55844.97;5133857;27;20235;-79
2022/06/15 04:33:24;;;;;;;22.52;21.13;;;;;;;-141.02;100.00;55844.97;5133205;27;20259;-79
2022/06/15 04:35:52;;;;;;;22.52;21.13;;;;;;;-141.02;100.00;55844.97;5133201;27;20193;-80
2022/06/15 04:38:19;;;;;;;22.60;21.20;;;;;;;-141.02;100.00;55844.97;5133249;27;20231;-79
2022/06/15 04:40:46;;;;;;;21.80;20.40;;;;;;;-141.02;100.00;55844.97;5133525;27;20248;-78
2022/06/15 04:43:13;;;;;;;22.45;21.02;;;;;;;-141.02;100.00;55844.97;5133412;27;20692;-79
2022/06/15 04:45:40;;;;;;;22.27;20.88;;;;;;;-141.02;100.00;55844.97;5133338;27;20196;-79
2022/06/15 04:48:10;;;;;;;21.95;20.55;;;;;;;-141.02;100.00;55844.97;5133253;27;20195;-79
2022/06/15 04:50:38;;;;;;;22.35;20.95;;;;;;;-141.02;100.00;55844.97;5133228;27;20311;-79
2022/06/15 04:53:06;;;;;;;22.65;21.25;;;;;;;-141.02;100.00;55844.97;5133000;27;20709;-78
2022/06/15 04:55:34;;;;;;;23.25;21.85;;;;;;;-141.02;100.00;55844.97;5132999;27;20192;-78
2022/06/15 04:58:02;;;;;;;22.73;21.33;;;;;;;-141.02;100.00;55844.97;5133297;27;20237;-78
2022/06/15 05:00:34;;;;;;;23.00;21.60;;;;;;;-141.02;100.00;55844.97;5133254;27;20196;-79
2022/06/15 05:03:02;;;;;;;22.60;21.25;;;;;;;-141.02;100.00;55844.97;5132998;27;20233;-78
2022/06/15 05:05:31;;;;;;;22.70;21.40;;;;;;;-141.02;100.00;55844.97;5133241;27;20259;-79
2022/06/15 05:07:58;;;;;;;22.38;21.08;;;;;;;-141.02;100.00;55844.97;5132878;27;20192;-78
2022/06/15 05:10:26;;;;;;;22.45;21.15;;;;;;;-141.02;100.00;55844.97;5132835;28;20659;-78
2022/06/15 05:12:54;;;;;;;22.30;21.00;;;;;;;-141.02;100.00;55844.97;5133075;27;20234;-76
2022/06/15 05:15:22;;;;;;;22.05;20.75;;;;;;;-141.02;100.00;55844.97;5136771;27;20253;-80
2022/06/15 05:17:50;;;;;;;21.42;20.23;;;;;;;-141.02;100.00;55844.97;5137547;27;20189;-77
2022/06/15 05:20:18;;;;;;;22.10;20.90;;;;;;;-141.02;100.00;55844.97;5136961;27;20654;-78
2022/06/15 05:22:52;;;;;;;22.10;20.77;;;;;;;-141.02;100.00;55844.97;5136875;27;20192;-79
2022/06/15 05:25:20;;;;;;;22.00;20.80;;;;;;;-141.02;100.00;55844.97;5137493;27;20188;-79
2022/06/15 05:27:47;;;;;;;21.70;20.50;;;;;;;-141.02;100.00;55844.97;5137108;27;20203;-78
2022/06/15 05:30:14;;;;;;;21.42;20.23;;;;;;;-141.02;100.00;55844.97;5137100;27;20192;-79
2022/06/15 05:32:41;;;;;;;22.02;20.73;;;;;;;-141.02;100.00;55844.97;5136989;27;20263;-78
2022/06/15 05:35:09;;;;;;;22.23;20.92;;;;;;;-141.02;100.00;55844.97;5136913;27;20288;-79
2022/06/15 05:37:36;;;;;;;21.30;20.10;;;;;;;-141.02;100.00;55844.97;5136956;27;20312;-78
2022/06/15 05:40:07;;;;;;;21.75;20.55;;;;;;;-141.02;100.00;55844.97;5137421;27;20283;-78
2022/06/15 05:42:35;;;;;;;22.25;21.05;;;;;;;-141.02;100.00;55844.97;5136934;27;20224;-79
2022/06/15 05:45:03;;;;;;;21.70;20.50;;;;;;;-141.02;100.00;55844.97;5136819;27;20195;-78
2022/06/15 05:47:30;;;;;;;21.70;20.50;;;;;;;-141.02;100.00;55844.97;5136756;27;20576;-79
2022/06/15 05:49:58;;;;;;;22.13;20.92;;;;;;;-141.02;100.00;55844.97;5136188;27;20785;-77
2022/06/15 05:52:25;;;;;;;21.33;20.13;;;;;;;-141.02;100.00;55844.97;5136306;27;20608;-76
2022/06/15 05:54:52;;;;;;;21.63;20.42;;;;;;;-141.02;100.00;55844.97;5136673;27;20645;-78
2022/06/15 05:57:23;;;;;;;21.63;20.42;;;;;;;-141.02;100.00;55844.97;5136232;27;20198;-78
2022/06/15 05:59:51;;;;;;;22.30;21.02;;;;;;;-141.02;100.00;55844.97;5136255;27;20192;-78
2022/06/15 06:02:20;;;;;;;22.85;21.55;;;;;;;-141.02;100.00;55844.97;5136165;27;20196;-78
2022/06/15 06:04:48;;;;;;;23.15;21.85;;;;;;;-141.02;100.00;55844.97;5136068;27;20195;-79
2022/06/15 06:07:15;;;;;;;22.38;21.15;;;;;;;-141.02;100.00;55844.97;5136052;27;20196;-78
2022/06/15 06:09:42;;;;;;;22.33;21.05;;;;;;;-141.02;100.00;55844.97;5136011;27;20665;-76
2022/06/15 06:12:10;;;;;;;22.02;20.83;;;;;;;-141.02;100.00;55844.97;5135978;27;20193;-79
2022/06/15 06:14:39;;;;;;;21.50;20.30;;;;;;;-141.02;100.00;55844.97;5136138;27;20266;-78
2022/06/15 06:17:06;;;;;;;22.17;20.88;;;;;;;-141.02;100.00;55844.97;5135881;27;20623;-75
2022/06/15 06:19:33;;;;;;;22.95;21.65;;;;;;;-141.02;100.00;55844.97;5135856;27;20192;-83
2022/06/15 06:22:01;;;;;;;21.88;20.58;;;;;;;-141.02;100.00;55844.97;5136092;27;20197;-77
2022/06/15 06:24:28;;;;;;;23.15;21.75;;;;;;;-141.02;100.00;55844.97;5136035;27;20204;-77
2022/06/15 06:26:58;;;;;;;23.00;21.60;;;;;;;-141.02;100.00;55844.97;5135105;27;20196;-78
2022/06/15 06:29:27;;;;;;;23.27;21.88;;;;;;;-141.02;100.00;55844.97;5135672;27;20749;-77
2022/06/15 06:31:57;;;;;;;23.92;22.42;;;;;;;-141.02;100.00;55844.97;5135906;27;20228;-74
2022/06/15 06:34:24;;;;;;;23.10;21.70;;;;;;;-141.02;100.00;55844.97;5135828;27;20228;-78
2022/06/15 06:36:51;;;;;;;23.08;21.67;;;;;;;-141.02;100.00;55844.97;5135511;27;20228;-77
2022/06/15 06:39:21;;;;;;;23.85;22.35;;;;;;;-141.02;100.00;55844.97;5135481;27;20197;-78
2022/06/15 06:41:48;;;;;;;24.05;22.65;;;;;;;-141.02;100.00;55844.97;5135401;27;20208;-77
2022/06/15 06:44:15;;;;;;;23.45;22.05;;;;;;;-141.02;100.00;55844.97;5135344;27;20666;-78
2022/06/15 06:46:44;;;;;;;23.05;21.65;;;;;;;-141.02;100.00;55844.97;5135626;27;20275;-78
2022/06/15 06:49:13;;;;;;;23.38;21.98;;;;;;;-141.02;100.00;55844.97;5135191;27;20284;-77
2022/06/15 06:51:42;;;;;;;22.80;21.40;;;;;;;-141.02;100.00;55844.97;5135090;27;20224;-77
2022/06/15 06:54:11;;;;;;;23.33;21.92;;;;;;;-141.02;100.00;55844.97;5135067;27;20694;-80
2022/06/15 06:56:39;;;;;;;23.40;21.90;;;;;;;-141.02;100.00;55844.97;5135420;27;20231;-79
2022/06/15 06:59:09;;;;;;;23.83;22.33;;;;;;;-141.02;100.00;55844.97;5135636;27;20245;-78
2022/06/15 07:01:36;;;;;;;22.98;21.58;;;;;;;-141.02;100.00;55844.97;5134935;27;20257;-78
2022/06/15 07:04:14;;;;;;;23.05;21.55;;;;;;;-141.02;100.00;55844.97;5134979;27;20192;-78
2022/06/15 07:07:23;;;;;;;23.90;22.40;;;;;;;-141.02;100.00;55844.97;5135484;27;20245;-79
2022/06/15 07:09:50;;;;;;;23.90;22.40;;;;;;;-141.02;100.00;55844.97;5134893;27;20195;-78
2022/06/15 07:12:17;;;;;;;23.65;22.15;;;;;;;-141.02;100.00;55844.97;5135262;27;20196;-77
2022/06/15 07:14:44;;;;;;;23.80;22.30;;;;;;;-141.02;100.00;55844.97;5135005;27;20659;-77
2022/06/15 07:17:10;;;;;;;23.80;22.30;;;;;;;-141.02;100.00;55844.97;5135022;27;20271;-77
2022/06/15 07:19:39;;;;;;;22.80;21.30;;;;;;;-141.02;100.00;55844.97;5134606;27;20196;-79
2022/06/15 07:22:06;;;;;;;23.45;22.05;;;;;;;-141.02;100.00;55844.97;5134654;27;20229;-77
2022/06/15 07:24:33;;;;;;;23.85;22.35;;;;;;;-141.02;100.00;55844.97;5134551;27;20328;-78
2022/06/15 07:27:00;;;;;;;23.17;21.67;;;;;;;-141.02;100.00;55844.97;5134803;27;20193;-77
2022/06/15 07:29:27;;;;;;;23.02;21.52;;;;;;;-141.02;100.00;55844.97;5134494;27;20274;-77
2022/06/15 07:31:56;;;;;;;23.02;21.58;;;;;;;-141.02;100.00;55844.97;5134402;27;20193;-79
2022/06/15 07:34:24;;;;;;;23.05;21.55;;;;;;;-141.02;100.00;55844.97;5134349;27;20224;-76
2022/06/15 07:36:53;;;;;;;23.20;21.70;;;;;;;-141.02;100.00;55844.97;5134549;27;20214;-77
2022/06/15 07:39:23;;;;;;;23.15;21.65;;;;;;;-141.02;100.00;55844.97;5134588;27;20193;-77
2022/06/15 07:41:51;;;;;;;23.50;22.00;;;;;;;-141.02;100.00;55844.97;5134843;27;20200;-77
2022/06/15 07:44:20;;;;;;;23.95;22.35;;;;;;;-141.02;100.00;55844.97;5134181;27;20196;-77
2022/06/15 07:46:47;;;;;;;24.25;22.65;;;;;;;-141.02;100.00;55844.97;5134463;27;20189;-77
2022/06/15 07:52:04;;;;;;;24.13;22.42;;;;;;;-141.02;100.00;55844.97;5134039;27;20731;-77
2022/06/15 07:54:31;;;;;;;24.48;22.83;;;;;;;-141.02;100.00;55844.97;5133933;27;20268;-78
2022/06/15 07:56:58;;;;;;;24.70;23.00;;;;;;;-141.02;100.00;55844.97;5133942;27;20279;-77
2022/06/15 07:59:26;;;;;;;25.25;23.45;;;;;;;-141.02;100.00;55844.97;5133853;27;20726;-76
2022/06/15 08:01:53;;;;;;;24.40;22.70;;;;;;;-141.02;100.00;55844.97;5134135;27;20195;-75
2022/06/15 08:04:20;;;;;;;23.45;21.85;;;;;;;-141.02;100.00;55844.97;5133730;27;20189;-77
2022/06/15 08:06:48;;;;;;;24.33;22.63;;;;;;;-141.02;100.00;55844.97;5134082;27;20188;-77
2022/06/15 08:09:18;;;;;;;24.88;23.08;;;;;;;-141.02;100.00;55844.97;5133689;27;20253;-77
2022/06/15 08:14:28;;;;;;;25.05;23.25;;;;;;;-141.02;100.00;55844.97;5133320;27;20243;-78
2022/06/15 08:16:55;;;;;;;25.27;23.48;;;;;;;-141.02;100.00;55844.97;5133882;27;20196;-78
2022/06/15 08:19:22;;;;;;;24.40;22.70;;;;;;;-141.02;100.00;55844.97;5134194;27;20222;-77
2022/06/15 08:21:49;;;;;;;24.92;23.13;;;;;;;-141.02;100.00;55844.97;5133445;27;20193;-77
2022/06/15 08:24:18;;;;;;;24.73;22.95;;;;;;;-141.02;100.00;55844.97;5133760;27;20188;-77
2022/06/15 08:26:45;;;;;;;25.95;24.15;;;;;;;-141.02;100.00;55844.97;5133372;27;20193;-81
2022/06/15 08:29:14;;;;;;;26.60;24.77;;;;;;;-141.02;100.00;55844.97;5133386;27;20274;-76
2022/06/15 08:31:41;;;;;;;26.05;24.25;;;;;;;-141.02;100.00;55844.97;5133682;27;20257;-78
2022/06/15 08:34:08;;;;;;;25.02;23.33;;;;;;;-141.02;100.00;55844.97;5133555;27;20224;-80
2022/06/15 08:36:35;;;;;;;24.77;23.08;;;;;;;-141.02;100.00;55844.97;5133597;27;20245;-78
2022/06/15 08:39:03;;;;;;;24.15;22.45;;;;;;;-141.02;100.00;55844.97;5133219;27;20288;-76
2022/06/15 08:41:42;;;;;;;24.42;22.73;;;;;;;-141.02;100.00;55844.97;5133229;27;20279;-74
2022/06/15 08:44:22;;;;;;;24.35;22.65;;;;;;;-141.02;100.00;55844.97;5133544;27;20227;-74
2022/06/15 08:46:59;;;;;;;23.77;22.08;;;;;;;-141.02;100.00;55844.97;5133468;27;20188;-77
2022/06/15 08:49:39;;;;;;;24.95;23.25;;;;;;;-141.02;100.00;55844.97;5132744;27;20233;-77
2022/06/15 08:52:13;;;;;;;24.67;22.98;;;;;;;-141.02;100.00;55844.97;5133161;27;20267;-79
2022/06/15 08:54:44;;;;;;;24.73;23.02;;;;;;;-141.02;100.00;55844.97;5133398;27;20238;-76
2022/06/15 08:57:18;;;;;;;25.10;23.33;;;;;;;-141.02;100.00;55844.97;5133468;27;20242;-76
2022/06/15 08:59:48;;;;;;;24.52;22.83;;;;;;;-141.02;100.00;55844.97;5133293;27;20275;-76
2022/06/15 09:02:25;;;;;;;24.85;23.05;;;;;;;-141.02;100.00;55844.97;5133333;27;20185;-76
2022/06/15 09:05:00;;;;;;;24.88;23.08;;;;;;;-141.02;100.00;55844.97;5133284;27;20218;-76
2022/06/15 09:07:41;;;;;;;24.13;22.35;;;;;;;-141.02;100.00;55844.97;5133287;27;20238;-78
2022/06/15 09:10:32;;;;;;;24.80;23.00;;;;;;;-141.02;100.00;55844.97;5133312;27;20188;-75
2022/06/15 09:13:17;;;;;;;24.75;22.95;;;;;;;-141.02;100.00;55844.97;5133226;27;20212;-79
2022/06/15 09:15:59;;;;;;;25.25;23.45;;;;;;;-141.02;100.00;55844.97;5132723;27;20204;-77
2022/06/15 09:18:30;;;;;;;24.98;23.17;;;;;;;-141.02;100.00;55844.97;5132867;27;20642;-81
2022/06/15 09:21:02;;;;;;;24.67;22.88;;;;;;;-141.02;100.00;55844.97;5133157;27;20220;-77
2022/06/15 09:23:33;;;;;;;24.75;23.00;;;;;;;-141.02;100.00;55844.97;5133127;27;20189;-77
2022/06/15 09:26:04;;;;;;;25.67;23.77;;;;;;;-141.02;100.00;55844.97;5133153;27;20233;-76
2022/06/15 09:28:38;;;;;;;25.20;23.30;;;;;;;-141.02;100.00;55844.97;5133027;27;20185;-76
2022/06/15 09:31:10;;;;;;;24.70;22.90;;;;;;;-141.02;100.00;55844.97;5132826;27;20200;-77
2022/06/15 09:33:41;;;;;;;24.00;22.20;;;;;;;-141.02;100.00;55844.97;5133011;27;20192;-75
2022/06/15 09:36:13;;;;;;;25.08;23.27;;;;;;;-141.02;100.00;55844.97;5132936;27;20224;-77
2022/06/15 09:38:41;;;;;;;25.30;23.50;;;;;;;-141.02;100.00;55844.97;5132679;27;20224;-79
2022/06/15 09:41:15;;;;;;;25.38;23.52;;;;;;;-141.02;100.00;55844.97;5132589;27;20666;-78
2022/06/15 09:43:51;;;;;;;25.38;23.55;;;;;;;-141.02;100.00;55844.97;5132686;27;20234;-78
2022/06/15 09:46:30;;;;;;;24.65;22.85;;;;;;;-141.02;100.00;55844.97;5132619;27;20241;-79
2022/06/15 09:49:10;;;;;;;25.10;23.30;;;;;;;-141.02;100.00;55844.97;5132863;27;20219;-77
2022/06/15 09:51:48;;;;;;;24.63;22.92;;;;;;;-141.02;100.00;55844.97;5132632;27;20729;-77
2022/06/15 09:54:31;;;;;;;26.00;24.10;;;;;;;-141.02;100.00;55844.97;5132493;27;20255;-78
2022/06/15 09:56:58;;;;;;;24.70;22.90;;;;;;;-141.02;100.00;55844.97;5132529;27;20275;-78
2022/06/15 09:59:32;;;;;;;25.15;23.35;;;;;;;-141.02;100.00;55844.97;5132792;27;20242;-80
2022/06/15 10:01:59;;;;;;;24.83;23.02;;;;;;;-141.02;100.00;55844.97;5135659;27;20187;-78
2022/06/15 10:04:31;;;;;;;25.35;23.48;;;;;;;-141.02;100.00;55844.97;5136428;27;20290;-79
2022/06/15 10:07:02;;;;;;;25.13;23.27;;;;;;;-141.02;100.00;55844.97;5136186;27;20188;-78
2022/06/15 10:09:33;;;;;;;24.67;22.88;;;;;;;-141.02;100.00;55844.97;5136367;27;20233;-78
2022/06/15 10:14:49;;;;;;;24.73;22.92;;;;;;;-141.02;100.00;55844.97;5135599;27;20683;-79
2022/06/15 10:17:24;;;;;;;24.65;22.85;;;;;;;-141.02;100.00;55844.97;5135958;27;20650;-78
2022/06/15 10:19:53;;;;;;;24.58;22.77;;;;;;;-141.02;100.00;55844.97;5136171;27;20224;-79
2022/06/15 10:22:26;;;;;;;25.42;23.52;;;;;;;-141.02;100.00;55844.97;5136089;27;20280;-78
2022/06/15 10:24:56;;;;;;;25.60;23.70;;;;;;;-141.02;100.00;55844.97;5135812;27;20187;-78
2022/06/15 10:27:32;;;;;;;24.92;23.10;;;;;;;-141.02;100.00;55844.97;5136052;27;20220;-78
2022/06/15 10:30:15;;;;;;;25.13;23.27;;;;;;;-141.02;100.00;55844.97;5136032;27;20267;-78
2022/06/15 10:33:02;;;;;;;24.83;23.02;;;;;;;-141.02;100.00;55844.97;5135679;27;20241;-78
2022/06/15 10:35:31;;;;;;;25.42;23.52;;;;;;;-141.02;100.00;55844.97;5135571;27;20307;-79
2022/06/15 10:38:01;;;;;;;25.20;23.30;;;;;;;-141.02;100.00;55844.97;5135781;27;20201;-78
2022/06/15 10:40:31;;;;;;;25.50;23.60;;;;;;;-141.02;100.00;55844.97;5135505;27;20208;-80
2022/06/15 10:43:04;;;;;;;24.70;22.85;;;;;;;-141.02;100.00;55844.97;5135690;27;20220;-78
2022/06/15 10:45:37;;;;;;;24.48;22.67;;;;;;;-141.02;100.00;55844.97;5135414;27;20213;-78
2022/06/15 10:48:08;;;;;;;24.30;22.50;;;;;;;-141.02;100.00;55844.97;5135554;27;20237;-77
2022/06/15 10:50:44;;;;;;;24.40;22.60;;;;;;;-141.02;100.00;55844.97;5135076;27;20729;-78
2022/06/15 10:53:27;;;;;;;23.90;22.13;;;;;;;-141.02;100.00;55844.97;5135560;27;20308;-75
2022/06/15 11:04:28;;;;;;;24.20;22.40;;;;;;;-141.02;100.00;55844.97;5135144;27;20176;-79
2022/06/15 11:07:03;;;;;;;23.20;21.50;;;;;;;-141.02;100.00;55844.97;5135232;27;20188;-80
2022/06/15 11:09:34;;;;;;;24.80;23.00;;;;;;;-141.02;100.00;55844.97;5134952;27;20611;-78
2022/06/15 11:12:07;;;;;;;24.00;22.20;;;;;;;-141.02;100.00;55844.97;5135190;27;20188;-79
2022/06/15 11:14:44;;;;;;;24.77;22.88;;;;;;;-141.02;100.00;55844.97;5134767;27;20701;-78
2022/06/15 11:20:26;;;;;;;24.83;22.92;;;;;;;-141.02;100.00;55844.97;5134830;27;20176;-80
2022/06/15 11:23:00;;;;;;;25.10;23.30;;;;;;;-141.02;100.00;55844.97;5135022;27;20189;-79
2022/06/15 11:25:40;;;;;;;24.58;22.77;;;;;;;-141.02;100.00;55844.97;5134975;27;20188;-80
2022/06/15 11:28:15;;;;;;;24.70;22.85;;;;;;;-141.02;100.00;55844.97;5134567;27;20627;-80
2022/06/15 11:30:50;;;;;;;25.27;23.40;;;;;;;-141.02;100.00;55844.97;5134544;27;20272;-79